createdAt,value
2019-03-31T00:00:26.704Z,13.04
2019-03-31T00:01:26.699Z,12.91
2019-03-31T00:02:26.677Z,12.93
2019-03-31T00:03:26.670Z,12.88
2019-03-31T00:04:26.679Z,12.91
2019-03-31T00:05:26.763Z,12.93
2019-03-31T00:06:26.633Z,12.93
2019-03-31T00:07:26.623Z,12.95
2019-03-31T00:08:26.615Z,12.96
2019-03-31T00:09:26.632Z,13.02
2019-03-31T00:10:26.593Z,13.02
2019-03-31T00:11:26.582Z,13.01
2019-03-31T00:12:26.577Z,13.09
2019-03-31T00:13:26.563Z,12.90
2019-03-31T00:14:26.587Z,12.99
2019-03-31T00:15:26.536Z,12.99
2019-03-31T00:16:26.522Z,12.84
2019-03-31T00:17:26.507Z,12.79
2019-03-31T00:18:26.502Z,12.83
2019-03-31T00:19:26.536Z,12.83
2019-03-31T00:20:26.497Z,12.68
2019-03-31T00:21:26.470Z,12.87
2019-03-31T00:22:26.460Z,12.93
2019-03-31T00:23:26.493Z,12.76
2019-03-31T00:24:26.431Z,12.88
2019-03-31T00:25:26.492Z,12.83
2019-03-31T00:26:26.407Z,12.81
2019-03-31T00:27:26.396Z,12.76
2019-03-31T00:28:26.386Z,12.76
2019-03-31T00:29:26.382Z,12.63
2019-03-31T00:30:27.204Z,12.76
2019-03-31T00:31:26.352Z,12.72
2019-03-31T00:32:26.344Z,12.80
2019-03-31T00:33:26.328Z,12.66
2019-03-31T00:34:26.319Z,12.68
2019-03-31T00:35:26.338Z,12.73
2019-03-31T00:36:26.294Z,12.76
2019-03-31T00:37:26.295Z,12.77
2019-03-31T00:38:26.317Z,12.86
2019-03-31T00:39:26.265Z,12.79
2019-03-31T00:40:26.279Z,12.72
2019-03-31T00:41:26.241Z,12.73
2019-03-31T00:42:26.229Z,12.83
2019-03-31T00:43:26.223Z,12.76
2019-03-31T00:44:26.209Z,12.72
2019-03-31T00:45:26.222Z,12.86
2019-03-31T00:46:26.209Z,12.81
2019-03-31T00:47:26.172Z,12.84
2019-03-31T00:48:26.167Z,12.77
2019-03-31T00:49:26.156Z,12.73
2019-03-31T00:50:26.140Z,12.66
2019-03-31T00:51:26.168Z,12.72
2019-03-31T00:52:26.117Z,12.79
2019-03-31T00:53:26.112Z,12.79
2019-03-31T00:54:27.734Z,12.79
2019-03-31T00:55:26.084Z,12.80
2019-03-31T00:56:26.114Z,12.83
2019-03-31T00:57:26.062Z,12.81
2019-03-31T00:58:26.052Z,12.71
2019-03-31T00:59:26.040Z,12.79
2019-03-31T01:00:26.053Z,12.80
2019-03-31T01:01:36.335Z,12.77
2019-03-31T01:02:27.006Z,12.91
2019-03-31T01:03:25.996Z,12.76
2019-03-31T01:04:25.992Z,12.69
2019-03-31T01:05:25.974Z,12.77
2019-03-31T01:06:25.984Z,12.66
2019-03-31T01:07:25.950Z,12.68
2019-03-31T01:08:25.948Z,12.62
2019-03-31T01:09:25.936Z,12.66
2019-03-31T01:10:25.919Z,12.66
2019-03-31T01:11:25.949Z,12.65
2019-03-31T01:12:25.898Z,12.72
2019-03-31T01:13:25.882Z,12.62
2019-03-31T01:14:25.871Z,12.68
2019-03-31T01:15:25.863Z,12.63
2019-03-31T01:16:25.913Z,12.63
2019-03-31T01:17:25.835Z,12.59
2019-03-31T01:18:25.826Z,12.71
2019-03-31T01:19:25.812Z,12.62
2019-03-31T01:20:25.804Z,12.48
2019-03-31T01:21:25.825Z,12.63
2019-03-31T01:22:25.781Z,12.61
2019-03-31T01:23:25.777Z,12.47
2019-03-31T01:24:25.761Z,12.59
2019-03-31T01:25:25.747Z,12.41
2019-03-31T01:26:25.830Z,12.46
2019-03-31T01:27:25.729Z,12.46
2019-03-31T01:28:25.775Z,12.46
2019-03-31T01:29:25.703Z,12.35
2019-03-31T01:30:25.692Z,12.36
2019-03-31T01:31:28.311Z,12.46
2019-03-31T01:32:25.717Z,12.40
2019-03-31T01:33:25.662Z,12.35
2019-03-31T01:34:25.646Z,12.33
2019-03-31T01:35:25.645Z,12.48
2019-03-31T01:36:25.625Z,12.26
2019-03-31T01:37:25.647Z,12.28
2019-03-31T01:38:25.606Z,12.17
2019-03-31T01:39:25.616Z,12.10
2019-03-31T01:40:25.581Z,12.10
2019-03-31T01:41:25.579Z,12.03
2019-03-31T01:42:25.581Z,12.04
2019-03-31T01:43:25.545Z,12.10
2019-03-31T01:44:25.544Z,12.14
2019-03-31T01:45:25.527Z,12.25
2019-03-31T01:46:25.513Z,12.17
2019-03-31T01:47:25.541Z,12.13
2019-03-31T01:48:25.498Z,12.08
2019-03-31T01:49:25.493Z,12.10
2019-03-31T01:50:25.478Z,12.25
2019-03-31T01:51:25.457Z,12.18
2019-03-31T01:52:25.465Z,12.05
2019-03-31T01:53:25.455Z,12.14
2019-03-31T01:54:25.419Z,12.13
2019-03-31T01:55:25.419Z,12.07
2019-03-31T01:56:25.399Z,12.14
2019-03-31T01:57:25.441Z,12.17
2019-03-31T01:58:25.382Z,11.93
2019-03-31T01:59:25.373Z,12.11
2019-03-31T02:00:25.354Z,12.10
2019-03-31T02:01:25.352Z,12.08
2019-03-31T02:02:25.332Z,12.10
2019-03-31T02:03:25.347Z,12.21
2019-03-31T02:04:25.324Z,12.29
2019-03-31T02:05:25.304Z,12.23
2019-03-31T02:06:25.290Z,12.38
2019-03-31T02:07:25.279Z,12.30
2019-03-31T02:08:25.289Z,12.29
2019-03-31T02:09:25.289Z,12.41
2019-03-31T02:10:25.241Z,12.36
2019-03-31T02:11:25.235Z,12.44
2019-03-31T02:12:25.219Z,12.32
2019-03-31T02:13:25.396Z,12.58
2019-03-31T02:14:25.201Z,12.40
2019-03-31T02:15:25.186Z,12.33
2019-03-31T02:16:25.173Z,12.33
2019-03-31T02:17:25.166Z,12.23
2019-03-31T02:18:25.190Z,12.15
2019-03-31T02:19:25.142Z,11.87
2019-03-31T02:20:25.127Z,11.84
2019-03-31T02:21:25.119Z,11.74
2019-03-31T02:22:25.107Z,11.69
2019-03-31T02:23:25.136Z,11.58
2019-03-31T02:24:25.086Z,11.67
2019-03-31T02:25:25.071Z,11.49
2019-03-31T02:26:25.064Z,11.48
2019-03-31T02:27:25.052Z,11.43
2019-03-31T02:28:25.073Z,11.40
2019-03-31T02:29:25.032Z,11.41
2019-03-31T02:30:25.026Z,11.48
2019-03-31T02:31:25.012Z,11.48
2019-03-31T02:32:25.157Z,11.46
2019-03-31T02:33:24.984Z,11.49
2019-03-31T02:34:25.001Z,11.56
2019-03-31T02:35:24.970Z,11.51
2019-03-31T02:36:24.956Z,11.61
2019-03-31T02:37:24.941Z,11.61
2019-03-31T02:38:24.928Z,11.59
2019-03-31T02:39:24.949Z,11.67
2019-03-31T02:40:24.908Z,11.62
2019-03-31T02:41:24.903Z,11.62
2019-03-31T02:42:24.903Z,11.73
2019-03-31T02:43:24.874Z,11.70
2019-03-31T02:44:24.899Z,11.73
2019-03-31T02:45:24.862Z,11.67
2019-03-31T02:46:24.839Z,11.58
2019-03-31T02:47:24.838Z,11.64
2019-03-31T02:48:24.815Z,11.43
2019-03-31T02:49:24.856Z,11.31
2019-03-31T02:50:24.794Z,11.33
2019-03-31T02:51:24.783Z,11.25
2019-03-31T02:52:24.814Z,11.25
2019-03-31T02:53:24.763Z,11.23
2019-03-31T02:54:24.777Z,11.22
2019-03-31T02:55:24.741Z,11.25
2019-03-31T02:56:24.730Z,11.36
2019-03-31T02:57:24.718Z,11.34
2019-03-31T02:58:24.704Z,11.28
2019-03-31T02:59:24.721Z,11.33
2019-03-31T03:00:24.682Z,11.31
2019-03-31T03:01:24.675Z,11.40
2019-03-31T03:02:40.774Z,11.34
2019-03-31T03:03:25.649Z,11.36
2019-03-31T03:04:24.664Z,11.40
2019-03-31T03:05:24.621Z,11.31
2019-03-31T03:06:24.613Z,11.19
2019-03-31T03:07:24.617Z,11.33
2019-03-31T03:08:24.624Z,11.30
2019-03-31T03:09:24.617Z,11.09
2019-03-31T03:10:24.641Z,11.22
2019-03-31T03:11:24.582Z,11.15
2019-03-31T03:12:24.625Z,11.04
2019-03-31T03:13:24.535Z,11.18
2019-03-31T03:14:24.547Z,11.20
2019-03-31T03:15:24.542Z,11.15
2019-03-31T03:16:24.731Z,11.15
2019-03-31T03:17:24.490Z,11.18
2019-03-31T03:18:24.577Z,11.08
2019-03-31T03:19:24.525Z,11.13
2019-03-31T03:20:24.605Z,11.09
2019-03-31T03:21:25.102Z,11.09
2019-03-31T03:22:24.436Z,11.04
2019-03-31T03:23:24.425Z,10.85
2019-03-31T03:24:24.474Z,10.94
2019-03-31T03:25:24.403Z,10.97
2019-03-31T03:26:24.426Z,10.78
2019-03-31T03:27:24.377Z,10.76
2019-03-31T03:28:24.376Z,10.54
2019-03-31T03:29:24.361Z,10.58
2019-03-31T03:30:24.491Z,10.43
2019-03-31T03:31:24.363Z,10.57
2019-03-31T03:32:24.394Z,10.54
2019-03-31T03:33:24.319Z,10.52
2019-03-31T03:34:24.301Z,10.45
2019-03-31T03:35:24.303Z,10.38
2019-03-31T03:36:24.325Z,10.52
2019-03-31T03:37:24.268Z,10.46
2019-03-31T03:38:24.259Z,10.43
2019-03-31T03:39:24.249Z,10.35
2019-03-31T03:40:24.263Z,10.28
2019-03-31T03:41:24.250Z,10.30
2019-03-31T03:42:24.215Z,10.26
2019-03-31T03:43:24.209Z,10.30
2019-03-31T03:44:24.194Z,10.21
2019-03-31T03:45:24.184Z,10.21
2019-03-31T03:46:24.206Z,10.28
2019-03-31T03:47:24.169Z,10.18
2019-03-31T03:48:24.148Z,10.26
2019-03-31T03:49:24.141Z,10.38
2019-03-31T03:50:24.158Z,10.45
2019-03-31T03:51:24.144Z,10.52
2019-03-31T03:52:24.131Z,10.42
2019-03-31T03:53:24.097Z,10.43
2019-03-31T03:54:24.089Z,10.52
2019-03-31T03:55:24.092Z,10.79
2019-03-31T03:56:28.720Z,10.54
2019-03-31T03:57:25.052Z,10.75
2019-03-31T03:58:24.039Z,10.78
2019-03-31T03:59:24.035Z,10.75
2019-03-31T04:00:24.027Z,10.85
2019-03-31T04:01:24.028Z,11.18
2019-03-31T04:02:24.027Z,11.20
2019-03-31T04:03:30.584Z,11.19
2019-03-31T04:04:24.978Z,11.15
2019-03-31T04:05:23.963Z,11.09
2019-03-31T04:06:23.954Z,10.90
2019-03-31T04:07:23.972Z,10.86
2019-03-31T04:08:23.932Z,10.67
2019-03-31T04:09:23.933Z,10.54
2019-03-31T04:10:23.907Z,10.41
2019-03-31T04:11:23.907Z,10.24
2019-03-31T04:12:23.913Z,10.16
2019-03-31T04:13:23.877Z,10.05
2019-03-31T04:14:23.868Z,9.94
2019-03-31T04:15:23.854Z,9.83
2019-03-31T04:16:23.847Z,9.81
2019-03-31T04:17:23.862Z,9.81
2019-03-31T04:18:23.822Z,9.63
2019-03-31T04:19:23.817Z,9.48
2019-03-31T04:20:23.807Z,9.41
2019-03-31T04:21:23.795Z,9.41
2019-03-31T04:22:23.795Z,9.45
2019-03-31T04:23:23.771Z,9.55
2019-03-31T04:24:23.764Z,9.63
2019-03-31T04:25:23.749Z,9.54
2019-03-31T04:26:23.727Z,9.57
2019-03-31T04:27:23.762Z,9.50
2019-03-31T04:28:23.706Z,9.57
2019-03-31T04:29:23.705Z,9.47
2019-03-31T04:30:23.695Z,9.29
2019-03-31T04:31:23.672Z,9.29
2019-03-31T04:32:23.712Z,9.34
2019-03-31T04:33:23.652Z,9.27
2019-03-31T04:34:23.640Z,9.32
2019-03-31T04:35:23.655Z,9.32
2019-03-31T04:36:23.617Z,9.36
2019-03-31T04:37:23.631Z,9.30
2019-03-31T04:38:23.603Z,9.34
2019-03-31T04:39:23.583Z,9.48
2019-03-31T04:40:23.577Z,9.42
2019-03-31T04:41:23.563Z,9.37
2019-03-31T04:42:23.575Z,9.57
2019-03-31T04:43:23.538Z,9.59
2019-03-31T04:44:23.528Z,9.65
2019-03-31T04:45:23.516Z,9.62
2019-03-31T04:46:23.511Z,9.51
2019-03-31T04:47:23.522Z,9.75
2019-03-31T04:48:23.485Z,9.81
2019-03-31T04:49:23.571Z,9.81
2019-03-31T04:50:23.464Z,9.83
2019-03-31T04:51:23.461Z,9.73
2019-03-31T04:52:23.469Z,9.80
2019-03-31T04:53:23.453Z,9.78
2019-03-31T04:54:23.418Z,9.78
2019-03-31T04:55:23.410Z,9.78
2019-03-31T04:56:23.395Z,9.67
2019-03-31T04:57:23.408Z,9.62
2019-03-31T04:58:23.395Z,9.66
2019-03-31T04:59:23.361Z,9.60
2019-03-31T05:00:23.348Z,9.57
2019-03-31T05:01:23.337Z,9.54
2019-03-31T05:02:26.913Z,9.52
2019-03-31T05:03:23.338Z,9.48
2019-03-31T05:04:23.315Z,9.51
2019-03-31T05:05:23.304Z,9.48
2019-03-31T05:06:23.283Z,9.51
2019-03-31T05:07:23.269Z,9.42
2019-03-31T05:08:23.284Z,9.44
2019-03-31T05:09:23.249Z,9.27
2019-03-31T05:10:23.241Z,9.01
2019-03-31T05:11:23.226Z,9.11
2019-03-31T05:12:23.217Z,9.03
2019-03-31T05:13:23.227Z,9.12
2019-03-31T05:14:23.193Z,9.04
2019-03-31T05:15:23.182Z,9.12
2019-03-31T05:16:23.174Z,9.23
2019-03-31T05:17:23.158Z,9.29
2019-03-31T05:18:23.181Z,9.29
2019-03-31T05:19:23.134Z,9.36
2019-03-31T05:20:23.124Z,9.23
2019-03-31T05:21:23.116Z,9.09
2019-03-31T05:22:23.206Z,8.99
2019-03-31T05:23:23.116Z,8.90
2019-03-31T05:24:23.078Z,8.85
2019-03-31T05:25:23.076Z,8.75
2019-03-31T05:26:23.105Z,8.71
2019-03-31T05:27:23.045Z,8.72
2019-03-31T05:28:23.071Z,8.63
2019-03-31T05:29:23.049Z,8.41
2019-03-31T05:30:23.012Z,8.28
2019-03-31T05:31:23.001Z,8.41
2019-03-31T05:32:22.991Z,8.29
2019-03-31T05:33:22.979Z,8.37
2019-03-31T05:34:23.006Z,8.42
2019-03-31T05:35:22.962Z,8.55
2019-03-31T05:36:22.946Z,8.52
2019-03-31T05:37:22.934Z,8.52
2019-03-31T05:38:22.924Z,8.23
2019-03-31T05:39:22.915Z,8.19
2019-03-31T05:40:22.932Z,8.13
2019-03-31T05:41:22.891Z,8.32
2019-03-31T05:42:22.887Z,8.39
2019-03-31T05:43:22.895Z,8.35
2019-03-31T05:44:22.863Z,8.41
2019-03-31T05:45:22.876Z,8.49
2019-03-31T05:46:22.835Z,8.41
2019-03-31T05:47:22.824Z,8.50
2019-03-31T05:48:22.817Z,8.38
2019-03-31T05:49:22.827Z,8.37
2019-03-31T05:50:22.797Z,8.46
2019-03-31T05:51:22.791Z,8.31
2019-03-31T05:52:22.774Z,8.35
2019-03-31T05:53:22.759Z,8.41
2019-03-31T05:54:22.770Z,8.41
2019-03-31T05:55:22.758Z,8.47
2019-03-31T05:56:22.723Z,8.55
2019-03-31T05:57:22.716Z,8.42
2019-03-31T05:58:22.700Z,8.77
2019-03-31T05:59:22.720Z,8.72
2019-03-31T06:00:22.682Z,8.68
2019-03-31T06:01:22.671Z,8.70
2019-03-31T06:02:22.658Z,8.67
2019-03-31T06:03:22.646Z,8.71
2019-03-31T06:04:33.014Z,8.59
2019-03-31T06:05:23.625Z,8.60
2019-03-31T06:06:22.612Z,8.59
2019-03-31T06:07:22.606Z,8.57
2019-03-31T06:08:22.589Z,8.41
2019-03-31T06:09:22.607Z,8.44
2019-03-31T06:10:22.568Z,8.44
2019-03-31T06:11:22.558Z,8.19
2019-03-31T06:12:22.544Z,8.02
2019-03-31T06:13:22.541Z,8.09
2019-03-31T06:14:22.521Z,8.21
2019-03-31T06:15:22.535Z,8.21
2019-03-31T06:16:22.499Z,8.21
2019-03-31T06:17:22.497Z,8.38
2019-03-31T06:18:22.484Z,8.31
2019-03-31T06:19:22.469Z,8.44
2019-03-31T06:20:22.489Z,8.35
2019-03-31T06:21:22.448Z,8.53
2019-03-31T06:22:22.434Z,8.65
2019-03-31T06:23:22.423Z,8.77
2019-03-31T06:24:22.413Z,8.72
2019-03-31T06:25:22.531Z,8.80
2019-03-31T06:26:22.414Z,8.81
2019-03-31T06:27:22.378Z,8.75
2019-03-31T06:28:22.368Z,8.56
2019-03-31T06:29:22.357Z,8.39
2019-03-31T06:30:22.347Z,8.41
2019-03-31T06:31:22.367Z,8.46
2019-03-31T06:32:22.322Z,8.38
2019-03-31T06:33:22.311Z,8.62
2019-03-31T06:34:22.303Z,8.60
2019-03-31T06:35:22.289Z,8.68
2019-03-31T06:36:22.303Z,8.53
2019-03-31T06:37:22.279Z,8.60
2019-03-31T06:38:22.263Z,8.67
2019-03-31T06:39:22.244Z,8.62
2019-03-31T06:40:22.235Z,8.65
2019-03-31T06:41:22.310Z,8.62
2019-03-31T06:42:22.212Z,8.65
2019-03-31T06:43:22.216Z,8.57
2019-03-31T06:44:22.194Z,8.67
2019-03-31T06:45:22.182Z,8.77
2019-03-31T06:46:22.189Z,8.68
2019-03-31T06:47:22.184Z,8.67
2019-03-31T06:48:22.147Z,8.85
2019-03-31T06:49:22.144Z,8.77
2019-03-31T06:50:22.134Z,8.80
2019-03-31T06:51:22.113Z,8.77
2019-03-31T06:52:22.130Z,8.74
2019-03-31T06:53:22.090Z,8.70
2019-03-31T06:54:22.089Z,8.65
2019-03-31T06:55:22.072Z,8.65
2019-03-31T06:56:22.059Z,8.71
2019-03-31T06:57:22.101Z,8.86
2019-03-31T06:58:22.035Z,8.86
2019-03-31T06:59:22.022Z,8.81
2019-03-31T07:00:22.012Z,8.85
2019-03-31T07:01:22.011Z,8.92
2019-03-31T07:02:22.011Z,8.95
2019-03-31T07:03:21.978Z,8.83
2019-03-31T07:04:21.965Z,8.80
2019-03-31T07:05:21.954Z,8.83
2019-03-31T07:06:21.977Z,8.83
2019-03-31T07:07:23.788Z,8.78
2019-03-31T07:08:21.923Z,8.78
2019-03-31T07:09:21.917Z,8.80
2019-03-31T07:10:21.908Z,8.85
2019-03-31T07:11:21.894Z,8.89
2019-03-31T07:12:21.893Z,9.01
2019-03-31T07:13:21.904Z,8.96
2019-03-31T07:14:21.863Z,9.06
2019-03-31T07:15:21.845Z,9.12
2019-03-31T07:16:21.830Z,9.11
2019-03-31T07:17:21.824Z,9.03
2019-03-31T07:18:21.830Z,9.12
2019-03-31T07:19:21.879Z,9.12
2019-03-31T07:20:21.793Z,8.90
2019-03-31T07:21:21.793Z,9.03
2019-03-31T07:22:24.327Z,9.15
2019-03-31T07:23:21.776Z,9.11
2019-03-31T07:24:21.754Z,9.11
2019-03-31T07:25:21.734Z,8.90
2019-03-31T07:26:21.744Z,8.92
2019-03-31T07:27:21.728Z,8.96
2019-03-31T07:28:21.774Z,9.09
2019-03-31T07:29:21.829Z,9.08
2019-03-31T07:30:21.869Z,9.32
2019-03-31T07:31:21.671Z,9.36
2019-03-31T07:32:21.735Z,9.36
2019-03-31T07:33:21.840Z,9.47
2019-03-31T07:34:21.724Z,9.32
2019-03-31T07:35:21.623Z,9.48
2019-03-31T07:36:21.607Z,9.34
2019-03-31T07:37:21.598Z,9.29
2019-03-31T07:38:21.609Z,9.23
2019-03-31T07:39:21.602Z,9.16
2019-03-31T07:40:21.879Z,9.30
2019-03-31T07:41:21.858Z,9.37
2019-03-31T07:42:21.569Z,9.36
2019-03-31T07:43:21.548Z,9.45
2019-03-31T07:44:21.546Z,9.34
2019-03-31T07:45:21.510Z,9.42
2019-03-31T07:46:21.501Z,9.34
2019-03-31T07:47:21.486Z,9.44
2019-03-31T07:48:21.474Z,9.52
2019-03-31T07:49:21.495Z,9.55
2019-03-31T07:50:21.450Z,9.73
2019-03-31T07:51:21.441Z,9.60
2019-03-31T07:52:21.431Z,9.57
2019-03-31T07:53:21.421Z,9.51
2019-03-31T07:54:21.432Z,9.47
2019-03-31T07:55:21.402Z,9.52
2019-03-31T07:56:21.390Z,9.55
2019-03-31T07:57:21.383Z,9.66
2019-03-31T07:58:21.364Z,9.57
2019-03-31T07:59:21.372Z,9.63
2019-03-31T08:00:21.340Z,9.85
2019-03-31T08:01:21.326Z,9.96
2019-03-31T08:02:21.323Z,9.94
2019-03-31T08:03:21.307Z,10.01
2019-03-31T08:04:21.320Z,10.05
2019-03-31T08:05:32.488Z,10.03
2019-03-31T08:06:22.271Z,9.99
2019-03-31T08:07:21.274Z,9.99
2019-03-31T08:08:21.253Z,10.05
2019-03-31T08:09:21.283Z,9.98
2019-03-31T08:10:21.229Z,9.93
2019-03-31T08:11:21.227Z,9.98
2019-03-31T08:12:21.210Z,9.85
2019-03-31T08:13:21.193Z,9.81
2019-03-31T08:14:21.189Z,9.80
2019-03-31T08:15:21.199Z,9.96
2019-03-31T08:16:21.167Z,9.78
2019-03-31T08:17:21.150Z,9.67
2019-03-31T08:18:21.151Z,9.66
2019-03-31T08:19:21.130Z,9.84
2019-03-31T08:20:21.141Z,9.72
2019-03-31T08:21:21.107Z,9.87
2019-03-31T08:22:21.097Z,9.80
2019-03-31T08:23:21.088Z,9.77
2019-03-31T08:24:21.078Z,9.69
2019-03-31T08:25:21.100Z,9.62
2019-03-31T08:26:21.058Z,9.52
2019-03-31T08:27:21.043Z,9.63
2019-03-31T08:28:21.399Z,9.54
2019-03-31T08:29:21.023Z,9.63
2019-03-31T08:30:21.034Z,9.50
2019-03-31T08:31:20.995Z,9.51
2019-03-31T08:32:20.983Z,9.59
2019-03-31T08:33:20.978Z,9.63
2019-03-31T08:34:20.969Z,9.54
2019-03-31T08:35:21.135Z,9.59
2019-03-31T08:36:20.945Z,9.65
2019-03-31T08:37:20.929Z,9.66
2019-03-31T08:38:24.317Z,9.69
2019-03-31T08:39:20.906Z,9.77
2019-03-31T08:40:20.926Z,9.81
2019-03-31T08:41:20.899Z,9.75
2019-03-31T08:42:20.876Z,9.81
2019-03-31T08:43:20.881Z,9.88
2019-03-31T08:44:20.849Z,9.78
2019-03-31T08:45:20.885Z,9.73
2019-03-31T08:46:20.832Z,9.55
2019-03-31T08:47:20.817Z,9.63
2019-03-31T08:48:20.812Z,9.72
2019-03-31T08:49:20.796Z,9.66
2019-03-31T08:50:20.816Z,9.65
2019-03-31T08:51:20.825Z,9.59
2019-03-31T08:52:20.777Z,9.59
2019-03-31T08:53:20.751Z,9.73
2019-03-31T08:54:20.753Z,9.69
2019-03-31T08:55:20.758Z,9.78
2019-03-31T08:56:20.762Z,9.84
2019-03-31T08:57:20.709Z,10.01
2019-03-31T08:58:20.701Z,9.99
2019-03-31T08:59:20.697Z,10.08
2019-03-31T09:00:20.680Z,9.94
2019-03-31T09:01:20.707Z,9.93
2019-03-31T09:02:20.654Z,9.98
2019-03-31T09:03:20.643Z,9.93
2019-03-31T09:04:20.648Z,10.12
2019-03-31T09:05:20.617Z,10.17
2019-03-31T09:06:20.642Z,10.26
2019-03-31T09:07:20.601Z,10.27
2019-03-31T09:08:20.594Z,10.21
2019-03-31T09:09:20.576Z,10.10
2019-03-31T09:10:20.563Z,10.06
2019-03-31T09:11:20.578Z,10.17
2019-03-31T09:12:20.539Z,10.36
2019-03-31T09:13:20.549Z,10.27
2019-03-31T09:14:20.532Z,10.39
2019-03-31T09:15:20.517Z,10.30
2019-03-31T09:16:20.538Z,10.28
2019-03-31T09:17:20.491Z,10.54
2019-03-31T09:18:20.477Z,10.38
2019-03-31T09:19:20.464Z,10.55
2019-03-31T09:20:20.455Z,10.52
2019-03-31T09:21:20.470Z,10.48
2019-03-31T09:22:20.433Z,10.49
2019-03-31T09:23:20.419Z,10.64
2019-03-31T09:24:20.414Z,10.45
2019-03-31T09:25:20.407Z,10.54
2019-03-31T09:26:20.418Z,10.45
2019-03-31T09:27:20.379Z,10.42
2019-03-31T09:28:20.368Z,10.52
2019-03-31T09:29:20.369Z,10.35
2019-03-31T09:30:20.346Z,10.21
2019-03-31T09:31:20.352Z,10.27
2019-03-31T09:32:20.324Z,10.28
2019-03-31T09:33:20.307Z,10.35
2019-03-31T09:34:20.300Z,10.26
2019-03-31T09:35:20.298Z,10.26
2019-03-31T09:36:20.310Z,10.34
2019-03-31T09:37:20.298Z,10.42
2019-03-31T09:38:20.261Z,10.54
2019-03-31T09:39:20.250Z,10.54
2019-03-31T09:40:20.250Z,10.68
2019-03-31T09:41:20.219Z,10.65
2019-03-31T09:42:20.242Z,10.70
2019-03-31T09:43:20.221Z,10.65
2019-03-31T09:44:20.207Z,10.67
2019-03-31T09:45:20.177Z,10.55
2019-03-31T09:46:20.164Z,10.62
2019-03-31T09:47:20.195Z,10.52
2019-03-31T09:48:20.146Z,10.54
2019-03-31T09:49:20.135Z,10.41
2019-03-31T09:50:20.137Z,10.31
2019-03-31T09:51:20.122Z,10.39
2019-03-31T09:52:20.132Z,10.34
2019-03-31T09:53:20.089Z,10.36
2019-03-31T09:54:20.083Z,10.35
2019-03-31T09:55:22.961Z,10.41
2019-03-31T09:56:20.060Z,10.54
2019-03-31T09:57:20.084Z,10.42
2019-03-31T09:58:20.038Z,10.41
2019-03-31T09:59:20.028Z,10.24
2019-03-31T10:00:20.012Z,10.35
2019-03-31T10:01:20.013Z,10.17
2019-03-31T10:02:20.003Z,10.05
2019-03-31T10:03:20.047Z,10.12
2019-03-31T10:04:19.972Z,10.27
2019-03-31T10:05:19.955Z,10.21
2019-03-31T10:06:30.094Z,10.27
2019-03-31T10:07:23.725Z,10.38
2019-03-31T10:08:22.000Z,10.43
2019-03-31T10:09:19.915Z,10.60
2019-03-31T10:10:19.904Z,10.48
2019-03-31T10:11:19.903Z,10.38
2019-03-31T10:12:19.883Z,10.43
2019-03-31T10:13:19.991Z,10.45
2019-03-31T10:14:19.862Z,10.36
2019-03-31T10:15:19.846Z,10.36
2019-03-31T10:16:19.841Z,10.41
2019-03-31T10:17:19.829Z,10.43
2019-03-31T10:18:19.848Z,10.48
2019-03-31T10:19:19.802Z,10.57
2019-03-31T10:20:19.799Z,10.48
2019-03-31T10:21:19.790Z,10.41
2019-03-31T10:22:19.780Z,10.39
2019-03-31T10:23:19.785Z,10.36
2019-03-31T10:24:19.760Z,10.42
2019-03-31T10:25:19.752Z,10.27
2019-03-31T10:26:31.081Z,10.39
2019-03-31T10:27:20.717Z,10.42
2019-03-31T10:28:19.740Z,10.38
2019-03-31T10:29:19.695Z,10.30
2019-03-31T10:30:19.695Z,10.27
2019-03-31T10:31:19.678Z,10.36
2019-03-31T10:32:19.666Z,10.38
2019-03-31T10:33:19.700Z,10.39
2019-03-31T10:34:19.663Z,10.57
2019-03-31T10:35:19.631Z,10.52
2019-03-31T10:36:19.636Z,10.62
2019-03-31T10:37:20.601Z,10.60
2019-03-31T10:38:19.609Z,10.55
2019-03-31T10:39:19.856Z,10.64
2019-03-31T10:40:19.578Z,10.65
2019-03-31T10:41:19.584Z,10.72
2019-03-31T10:42:19.551Z,10.90
2019-03-31T10:43:19.572Z,10.91
2019-03-31T10:44:19.578Z,10.79
2019-03-31T10:45:19.537Z,10.95
2019-03-31T10:46:19.537Z,11.04
2019-03-31T10:47:19.498Z,11.08
2019-03-31T10:48:21.324Z,10.93
2019-03-31T10:49:19.557Z,10.91
2019-03-31T10:50:19.477Z,11.16
2019-03-31T10:51:19.484Z,11.70
2019-03-31T10:52:19.441Z,12.26
2019-03-31T10:53:19.555Z,12.73
2019-03-31T10:54:19.523Z,13.14
2019-03-31T10:55:19.440Z,13.47
2019-03-31T10:56:19.446Z,13.40
2019-03-31T10:57:19.407Z,12.87
2019-03-31T10:58:19.377Z,12.53
2019-03-31T10:59:19.415Z,12.41
2019-03-31T11:00:19.422Z,12.48
2019-03-31T11:01:19.371Z,12.29
2019-03-31T11:02:19.353Z,12.17
2019-03-31T11:03:19.346Z,11.88
2019-03-31T11:04:19.333Z,11.70
2019-03-31T11:05:19.351Z,11.80
2019-03-31T11:06:19.308Z,11.66
2019-03-31T11:07:19.309Z,11.69
2019-03-31T11:08:19.272Z,11.71
2019-03-31T11:09:19.266Z,11.69
2019-03-31T11:10:19.350Z,11.82
2019-03-31T11:11:19.313Z,11.67
2019-03-31T11:12:19.246Z,11.64
2019-03-31T11:13:19.269Z,11.56
2019-03-31T11:14:19.315Z,11.59
2019-03-31T11:15:19.237Z,11.58
2019-03-31T11:16:19.205Z,11.61
2019-03-31T11:17:19.183Z,11.52
2019-03-31T11:18:19.154Z,11.67
2019-03-31T11:19:19.197Z,11.64
2019-03-31T11:20:19.256Z,11.70
2019-03-31T11:21:19.176Z,11.62
2019-03-31T11:22:19.146Z,11.52
2019-03-31T11:23:19.139Z,11.41
2019-03-31T11:24:19.138Z,11.52
2019-03-31T11:25:21.242Z,11.23
2019-03-31T11:26:19.140Z,11.15
2019-03-31T11:27:19.138Z,11.15
2019-03-31T11:28:19.102Z,11.08
2019-03-31T11:29:19.090Z,11.04
2019-03-31T11:30:19.047Z,11.08
2019-03-31T11:31:19.081Z,10.94
2019-03-31T11:32:19.034Z,11.00
2019-03-31T11:33:19.017Z,10.93
2019-03-31T11:34:19.820Z,11.05
2019-03-31T11:35:19.000Z,11.33
2019-03-31T11:36:19.086Z,11.76
2019-03-31T11:37:18.993Z,12.13
2019-03-31T11:38:19.042Z,12.54
2019-03-31T11:39:18.957Z,12.79
2019-03-31T11:40:18.941Z,13.02
2019-03-31T11:41:18.980Z,12.77
2019-03-31T11:42:18.910Z,12.23
2019-03-31T11:43:18.910Z,11.74
2019-03-31T11:44:18.941Z,11.58
2019-03-31T11:45:18.885Z,11.40
2019-03-31T11:46:18.964Z,10.94
2019-03-31T11:47:18.897Z,10.91
2019-03-31T11:48:18.841Z,10.90
2019-03-31T11:49:18.813Z,10.97
2019-03-31T11:50:18.825Z,10.93
2019-03-31T11:51:18.845Z,10.87
2019-03-31T11:52:18.795Z,10.95
2019-03-31T11:53:18.773Z,10.97
2019-03-31T11:54:18.762Z,10.95
2019-03-31T11:55:18.750Z,11.11
2019-03-31T11:56:18.771Z,11.22
2019-03-31T11:57:18.726Z,11.22
2019-03-31T11:58:18.721Z,11.18
2019-03-31T11:59:20.808Z,11.13
2019-03-31T12:00:18.698Z,11.12
2019-03-31T12:01:18.718Z,11.08
2019-03-31T12:02:27.046Z,10.97
2019-03-31T12:03:19.666Z,11.05
2019-03-31T12:04:18.649Z,11.08
2019-03-31T12:05:18.639Z,11.04
2019-03-31T12:06:18.625Z,10.94
2019-03-31T12:07:27.735Z,11.01
2019-03-31T12:08:19.618Z,11.00
2019-03-31T12:09:18.604Z,11.20
2019-03-31T12:10:20.077Z,11.13
2019-03-31T12:11:18.575Z,11.15
2019-03-31T12:12:18.599Z,11.27
2019-03-31T12:13:18.553Z,11.28
2019-03-31T12:14:18.555Z,11.51
2019-03-31T12:15:18.530Z,11.51
2019-03-31T12:16:18.606Z,11.51
2019-03-31T12:17:18.540Z,11.49
2019-03-31T12:18:18.501Z,11.58
2019-03-31T12:19:18.485Z,11.54
2019-03-31T12:20:18.474Z,11.58
2019-03-31T12:21:18.465Z,11.58
2019-03-31T12:22:18.478Z,11.74
2019-03-31T12:23:18.449Z,11.74
2019-03-31T12:24:18.451Z,11.79
2019-03-31T12:25:19.968Z,11.82
2019-03-31T12:26:18.412Z,11.89
2019-03-31T12:27:18.426Z,11.87
2019-03-31T12:28:18.385Z,11.99
2019-03-31T12:29:18.374Z,12.08
2019-03-31T12:30:18.367Z,12.07
2019-03-31T12:31:18.354Z,12.21
2019-03-31T12:32:18.366Z,12.30
2019-03-31T12:33:18.355Z,12.38
2019-03-31T12:34:18.332Z,12.54
2019-03-31T12:35:18.309Z,12.46
2019-03-31T12:36:18.293Z,12.61
2019-03-31T12:37:18.335Z,12.59
2019-03-31T12:38:18.277Z,12.53
2019-03-31T12:39:18.268Z,12.58
2019-03-31T12:40:18.259Z,12.71
2019-03-31T12:41:18.244Z,12.55
2019-03-31T12:42:18.239Z,12.28
2019-03-31T12:43:18.238Z,12.10
2019-03-31T12:44:18.213Z,12.22
2019-03-31T12:45:18.194Z,12.13
2019-03-31T12:46:18.181Z,12.08
2019-03-31T12:47:18.178Z,11.96
2019-03-31T12:48:18.186Z,11.93
2019-03-31T12:49:18.164Z,12.05
2019-03-31T12:50:18.146Z,12.13
2019-03-31T12:51:18.130Z,12.17
2019-03-31T12:52:18.116Z,12.30
2019-03-31T12:53:18.155Z,12.04
2019-03-31T12:54:18.089Z,11.99
2019-03-31T12:55:18.079Z,11.99
2019-03-31T12:56:18.078Z,12.13
2019-03-31T12:57:18.062Z,12.00
2019-03-31T12:58:18.075Z,11.99
2019-03-31T12:59:18.077Z,12.05
2019-03-31T13:00:18.025Z,12.17
2019-03-31T13:01:18.010Z,12.07